Terminal Aerodrome Forecast
Issued by NWS Sterling, VA

Current Version | Previous Version | Graphics & Text | Print | Product List | Glossary On
Versions: 1 2 3 4 5 6 7 8 9 10 11 12 13 14 15 16 17
000
FTUS41 KLWX 191132
TAFMRB
TAF
KMRB 191132Z 1912/2012 26009KT P6SM OVC050
     FM191400 28015G29KT P6SM OVC040
     FM191500 29018G35KT P6SM OVC040
     FM200000 31015G29KT P6SM SCT050
     FM200100 31015G29KT P6SM SKC
     FM200600 31011G22KT P6SM SKC=

USA.gov is the U.S. government's official web portal to all federal, state and local government web resources and services.